METAR AND TAF INFORMATION
METAR FOR LSZS
ADDS - METARS form results

(1258 UTC 23 January 2021)
Data provider http://aviationweather.gov/metar/data/
 
METAR text: LSZS 231250Z 03009KT 9999 BKN095 M04/M10 Q0993 R03/31//95 RMK M TL180
Conditions at: LSZS (SAMEDAN , CH) observed 1250 UTC 23 January 2021
Temperature: -4.0°C (25°F)
Dewpoint: -10.0°C (14°F) [RH = 63%]
Pressure (altimeter): 29.32 inches Hg (993.0 mb)
Winds: from the NNE (30 degrees) at 10 MPH (9 knots; 4.6 m/s)
Visibility: 6 or more miles (10+ km)
Ceiling: 9500 feet AGL
Clouds: broken clouds at 9500 feet AGL
Weather: no significant weather observed at this time

METAR text: LSZS 231220Z 03009KT 9999 BKN075 M04/M10 Q0993 R03/31//95 RMK L TL180
Conditions at: LSZS (SAMEDAN , CH) observed 1220 UTC 23 January 2021
Temperature: -4.0°C (25°F)
Dewpoint: -10.0°C (14°F) [RH = 63%]
Pressure (altimeter): 29.32 inches Hg (993.0 mb)
Winds: from the NNE (30 degrees) at 10 MPH (9 knots; 4.6 m/s)
Visibility: 6 or more miles (10+ km)
Ceiling: 7500 feet AGL
Clouds: broken clouds at 7500 feet AGL
Weather: no significant weather observed at this time

Forecast for: LSZS (SAMEDAN , CH)
Text: TAF LSZS 231125Z 2312/2321 06006KT 9999 BKN085 TXM02/2314Z
Forecast period: 1200 to 2100 UTC 23 January 2021
Forecast type: FROM: standard forecast or significant change
Winds: from the ENE (60 degrees) at 7 MPH (6 knots; 3.1 m/s)
Visibility: 6 or more miles (10+ km)
Ceiling: 8500 feet AGL
Clouds: broken clouds at 8500 feet AGL
Weather: no significant weather forecast for this period
Text: TEMPO 2312/2316 CAVOK
Forecast period: 1200 to 1600 UTC 23 January 2021
Forecast type: TEMPORARY: The following changes expected for less than half the time period
Visibility: 6 or more miles (10+ km)
Ceiling: unknown
Clouds: missing
Weather: NSW  (no significant weather)
Text: TEMPO 2318/2321 4500 SHSN BKN014
Forecast period: 1800 to 2100 UTC 23 January 2021
Forecast type: TEMPORARY: The following changes expected for less than half the time period
Visibility: 2.80 miles (4.51 km)
Ceiling: 1400 feet AGL
Clouds: broken clouds at 1400 feet AGL
Weather: SHSN  (snow showers)

 AIRPORT MAP

 RUNWAY INFORMATION
Runway 03 Runway length 5905 ft Runway width 130 ft
Runway elevation 5600 ft Runway displaced threshold 0 ft Runway heading 29
Runway 21 Runway length 5905 ft Runway width 130 ft
Runway elevation 5574 ft Runway displaced threshold 360 ft Runway heading 209

 AIRPORT FREQUENCIES
Type A/G Name GLIDER Frequency 123.67 MHZ
Type ATIS Name ATIS Frequency 136.6 MHZ
Type GND Name GND Frequency 121.6 MHZ
Type INFO Name INFO Frequency 138.05 MHZ
Type TWR Name TWR Frequency 135.325 MHZ

 AIRPORT NEAR NAVIGATION AIDS



Powered by Virtual Airlines Manager [v2.6.2]